sensor_id;sensor_type;location;lat;lon;timestamp;pressure;altitude;pressure_sealevel;temperature;humidity
13836;BME280;6988;52.614;13.500;2024-02-15T00:02:19;54717.59;;;-143.77;93.33
13836;BME280;6988;52.614;13.500;2024-02-15T00:07:13;54697.06;;;-143.77;92.97
13836;BME280;6988;52.614;13.500;2024-02-15T00:12:05;54764.78;;;-143.77;93.13
13836;BME280;6988;52.614;13.500;2024-02-15T00:16:58;54725.78;;;-143.77;93.06
13836;BME280;6988;52.614;13.500;2024-02-15T00:21:51;54715.53;;;-143.77;93.21
13836;BME280;6988;52.614;13.500;2024-02-15T00:26:46;54713.47;;;-143.77;93.19
13836;BME280;6988;52.614;13.500;2024-02-15T00:31:38;54727.84;;;-143.77;93.25
13836;BME280;6988;52.614;13.500;2024-02-15T00:36:30;54752.47;;;-143.77;92.91
13836;BME280;6988;52.614;13.500;2024-02-15T00:41:24;54729.91;;;-143.77;93.04
13836;BME280;6988;52.614;13.500;2024-02-15T00:46:16;54717.59;;;-143.77;92.86
13836;BME280;6988;52.614;13.500;2024-02-15T00:51:08;54729.91;;;-143.77;93.01
13836;BME280;6988;52.614;13.500;2024-02-15T00:56:00;54717.59;;;-143.77;92.80
13836;BME280;6988;52.614;13.500;2024-02-15T01:00:54;54711.44;;;-143.77;92.48
13836;BME280;6988;52.614;13.500;2024-02-15T01:05:46;54744.25;;;-143.77;92.46
13836;BME280;6988;52.614;13.500;2024-02-15T01:10:38;54717.59;;;-143.77;92.44
13836;BME280;6988;52.614;13.500;2024-02-15T01:15:30;54721.69;;;-143.77;92.41
13836;BME280;6988;52.614;13.500;2024-02-15T01:20:23;54742.22;;;-143.77;92.61
13836;BME280;6988;52.614;13.500;2024-02-15T01:25:15;54742.22;;;-143.77;92.62
13836;BME280;6988;52.614;13.500;2024-02-15T01:30:09;54709.38;;;-143.77;92.71
13836;BME280;6988;52.614;13.500;2024-02-15T01:35:02;54692.97;;;-143.77;92.97
13836;BME280;6988;52.614;13.500;2024-02-15T01:39:55;54725.78;;;-143.77;92.85
13836;BME280;6988;52.614;13.500;2024-02-15T01:44:47;54740.16;;;-143.77;92.82
13836;BME280;6988;52.614;13.500;2024-02-15T01:49:40;54709.38;;;-143.77;92.89
13836;BME280;6988;52.614;13.500;2024-02-15T01:54:33;54731.94;;;-143.77;93.25
13836;BME280;6988;52.614;13.500;2024-02-15T01:59:26;54699.13;;;-143.77;93.40
13836;BME280;6988;52.614;13.500;2024-02-15T02:04:19;54727.84;;;-143.77;93.43
13836;BME280;6988;52.614;13.500;2024-02-15T02:09:12;54697.06;;;-143.77;93.68
13836;BME280;6988;52.614;13.500;2024-02-15T02:14:04;54738.09;;;-143.77;93.67
13836;BME280;6988;52.614;13.500;2024-02-15T02:18:58;54731.94;;;-143.77;93.88
13836;BME280;6988;52.614;13.500;2024-02-15T02:23:56;54731.94;;;-143.77;93.97
13836;BME280;6988;52.614;13.500;2024-02-15T02:28:50;54742.22;;;-143.77;93.97
13836;BME280;6988;52.614;13.500;2024-02-15T02:33:50;54734.00;;;-143.77;94.09
13836;BME280;6988;52.614;13.500;2024-02-15T02:38:43;54697.06;;;-143.77;94.70
13836;BME280;6988;52.614;13.500;2024-02-15T02:43:36;54721.69;;;-143.77;94.78
13836;BME280;6988;52.614;13.500;2024-02-15T02:48:29;54729.91;;;-143.77;94.96
13836;BME280;6988;52.614;13.500;2024-02-15T02:53:22;54760.69;;;-143.77;95.03
13836;BME280;6988;52.614;13.500;2024-02-15T02:58:14;54729.91;;;-143.77;95.11
13836;BME280;6988;52.614;13.500;2024-02-15T03:03:06;54705.28;;;-143.77;95.18
13836;BME280;6988;52.614;13.500;2024-02-15T03:08:00;54719.63;;;-143.77;95.27
13836;BME280;6988;52.614;13.500;2024-02-15T03:12:52;54725.78;;;-143.77;95.36
13836;BME280;6988;52.614;13.500;2024-02-15T03:17:46;54684.75;;;-143.77;95.46
13836;BME280;6988;52.614;13.500;2024-02-15T03:22:38;54690.91;;;-143.77;95.23
13836;BME280;6988;52.614;13.500;2024-02-15T03:27:33;54748.38;;;-143.77;95.54
13836;BME280;6988;52.614;13.500;2024-02-15T03:32:26;54703.22;;;-143.77;95.65
13836;BME280;6988;52.614;13.500;2024-02-15T03:37:18;54664.22;;;-143.77;95.50
13836;BME280;6988;52.614;13.500;2024-02-15T03:42:11;54721.69;;;-143.77;95.74
13836;BME280;6988;52.614;13.500;2024-02-15T03:47:05;54686.81;;;-143.77;95.51
13836;BME280;6988;52.614;13.500;2024-02-15T03:51:58;54697.06;;;-143.77;95.59
13836;BME280;6988;52.614;13.500;2024-02-15T03:56:50;54699.13;;;-143.77;95.70
13836;BME280;6988;52.614;13.500;2024-02-15T04:01:43;54731.94;;;-143.77;95.76
13836;BME280;6988;52.614;13.500;2024-02-15T04:06:39;54744.25;;;-143.77;95.91
13836;BME280;6988;52.614;13.500;2024-02-15T04:11:32;54717.59;;;-143.77;96.04
13836;BME280;6988;52.614;13.500;2024-02-15T04:16:24;54711.44;;;-143.77;96.03
13836;BME280;6988;52.614;13.500;2024-02-15T04:21:17;54725.78;;;-143.77;96.02
13836;BME280;6988;52.614;13.500;2024-02-15T04:26:12;54711.44;;;-143.77;96.31
13836;BME280;6988;52.614;13.500;2024-02-15T04:31:04;54729.91;;;-143.77;96.20
13836;BME280;6988;52.614;13.500;2024-02-15T04:35:59;54697.06;;;-143.77;96.69
13836;BME280;6988;52.614;13.500;2024-02-15T04:40:55;54680.66;;;-143.77;96.68
13836;BME280;6988;52.614;13.500;2024-02-15T04:45:49;54699.13;;;-143.77;96.41
13836;BME280;6988;52.614;13.500;2024-02-15T04:50:42;54705.28;;;-143.77;96.83
13836;BME280;6988;52.614;13.500;2024-02-15T04:55:34;54692.97;;;-143.77;97.00
13836;BME280;6988;52.614;13.500;2024-02-15T05:00:27;54709.38;;;-143.77;97.01
13836;BME280;6988;52.614;13.500;2024-02-15T05:05:21;54699.13;;;-143.77;97.19
13836;BME280;6988;52.614;13.500;2024-02-15T05:10:15;54736.06;;;-143.77;97.06
13836;BME280;6988;52.614;13.500;2024-02-15T05:15:09;54699.13;;;-143.77;97.31
13836;BME280;6988;52.614;13.500;2024-02-15T05:20:01;54725.78;;;-143.77;97.39
13836;BME280;6988;52.614;13.500;2024-02-15T05:25:05;54717.59;;;-143.77;97.29
13836;BME280;6988;52.614;13.500;2024-02-15T05:29:59;54727.84;;;-143.77;97.12
13836;BME280;6988;52.614;13.500;2024-02-15T05:34:51;54684.75;;;-143.77;97.01
13836;BME280;6988;52.614;13.500;2024-02-15T05:39:45;54713.47;;;-143.77;97.08
13836;BME280;6988;52.614;13.500;2024-02-15T05:44:39;54692.97;;;-143.77;97.34
13836;BME280;6988;52.614;13.500;2024-02-15T05:49:32;54703.22;;;-143.77;97.29
13836;BME280;6988;52.614;13.500;2024-02-15T05:54:24;54719.63;;;-143.77;97.22
13836;BME280;6988;52.614;13.500;2024-02-15T05:59:17;54727.84;;;-143.77;97.45
13836;BME280;6988;52.614;13.500;2024-02-15T06:04:12;54699.13;;;-143.77;97.25
13836;BME280;6988;52.614;13.500;2024-02-15T06:09:04;54727.84;;;-143.77;97.35
13836;BME280;6988;52.614;13.500;2024-02-15T06:13:57;54717.59;;;-143.77;97.80
13836;BME280;6988;52.614;13.500;2024-02-15T06:18:49;54682.69;;;-143.77;97.63
13836;BME280;6988;52.614;13.500;2024-02-15T06:23:42;54707.31;;;-143.77;97.79
13836;BME280;6988;52.614;13.500;2024-02-15T06:28:34;54705.28;;;-143.77;97.74
13836;BME280;6988;52.614;13.500;2024-02-15T06:33:43;54705.28;;;-143.77;97.83
13836;BME280;6988;52.614;13.500;2024-02-15T06:38:54;54688.84;;;-143.77;97.68
13836;BME280;6988;52.614;13.500;2024-02-15T06:44:04;54738.09;;;-143.77;97.81
13836;BME280;6988;52.614;13.500;2024-02-15T06:48:55;54727.84;;;-143.77;97.93
13836;BME280;6988;52.614;13.500;2024-02-15T06:53:48;54725.78;;;-143.77;97.79
13836;BME280;6988;52.614;13.500;2024-02-15T06:58:43;54688.84;;;-143.77;97.73
13836;BME280;6988;52.614;13.500;2024-02-15T07:03:35;54676.53;;;-143.77;97.85
13836;BME280;6988;52.614;13.500;2024-02-15T07:08:31;54680.66;;;-143.77;97.55
13836;BME280;6988;52.614;13.500;2024-02-15T07:13:22;54734.00;;;-143.77;97.55
13836;BME280;6988;52.614;13.500;2024-02-15T07:18:18;54688.84;;;-143.77;97.76
13836;BME280;6988;52.614;13.500;2024-02-15T07:23:12;54680.66;;;-143.77;97.73
13836;BME280;6988;52.614;13.500;2024-02-15T07:28:05;54678.59;;;-143.77;97.54
13836;BME280;6988;52.614;13.500;2024-02-15T07:32:58;54713.47;;;-143.77;97.51
13836;BME280;6988;52.614;13.500;2024-02-15T07:37:55;54676.53;;;-143.77;97.36
13836;BME280;6988;52.614;13.500;2024-02-15T07:42:51;54668.34;;;-143.77;97.47
13836;BME280;6988;52.614;13.500;2024-02-15T07:47:43;54692.97;;;-143.77;97.27
13836;BME280;6988;52.614;13.500;2024-02-15T07:52:35;54703.22;;;-143.77;97.45
13836;BME280;6988;52.614;13.500;2024-02-15T07:57:28;54727.84;;;-143.77;97.14
13836;BME280;6988;52.614;13.500;2024-02-15T08:02:21;54680.66;;;-143.77;97.34
13836;BME280;6988;52.614;13.500;2024-02-15T08:07:13;54643.72;;;-143.77;97.20
13836;BME280;6988;52.614;13.500;2024-02-15T08:12:06;54668.34;;;-143.77;97.57
13836;BME280;6988;52.614;13.500;2024-02-15T08:16:59;54674.50;;;-143.77;97.32
13836;BME280;6988;52.614;13.500;2024-02-15T08:21:51;54676.53;;;-143.77;97.10
13836;BME280;6988;52.614;13.500;2024-02-15T08:26:43;54692.97;;;-143.77;97.13
13836;BME280;6988;52.614;13.500;2024-02-15T08:31:35;54701.16;;;-143.77;97.06
13836;BME280;6988;52.614;13.500;2024-02-15T08:36:29;54660.13;;;-143.77;97.00
13836;BME280;6988;52.614;13.500;2024-02-15T08:41:22;54645.75;;;-143.77;96.67
13836;BME280;6988;52.614;13.500;2024-02-15T08:46:17;54692.97;;;-143.77;96.49
13836;BME280;6988;52.614;13.500;2024-02-15T08:51:09;54664.22;;;-143.77;96.09
13836;BME280;6988;52.614;13.500;2024-02-15T08:56:03;54705.28;;;-143.77;96.00
13836;BME280;6988;52.614;13.500;2024-02-15T09:00:55;54660.13;;;-143.77;95.90
13836;BME280;6988;52.614;13.500;2024-02-15T09:05:47;54639.59;;;-143.77;95.31
13836;BME280;6988;52.614;13.500;2024-02-15T09:10:39;54656.03;;;-143.77;95.37
13836;BME280;6988;52.614;13.500;2024-02-15T09:15:32;54619.09;;;-143.77;95.23
13836;BME280;6988;52.614;13.500;2024-02-15T09:20:24;54598.56;;;-143.77;94.93
13836;BME280;6988;52.614;13.500;2024-02-15T09:25:19;54651.91;;;-143.77;94.49
13836;BME280;6988;52.614;13.500;2024-02-15T09:30:14;54621.13;;;-143.77;94.05
13836;BME280;6988;52.614;13.500;2024-02-15T09:35:10;54627.28;;;-143.77;93.72
13836;BME280;6988;52.614;13.500;2024-02-15T09:40:03;54627.28;;;-143.77;92.96
13836;BME280;6988;52.614;13.500;2024-02-15T09:44:59;54619.09;;;-143.77;92.36
13836;BME280;6988;52.614;13.500;2024-02-15T09:49:51;54608.81;;;-143.77;92.10
13836;BME280;6988;52.614;13.500;2024-02-15T09:54:45;54656.03;;;-143.77;91.50
13836;BME280;6988;52.614;13.500;2024-02-15T09:59:38;54623.19;;;-143.77;90.87
13836;BME280;6988;52.614;13.500;2024-02-15T10:04:31;54664.22;;;-143.77;90.80
13836;BME280;6988;52.614;13.500;2024-02-15T10:09:26;54639.59;;;-143.77;90.63
13836;BME280;6988;52.614;13.500;2024-02-15T10:14:20;54623.19;;;-143.77;91.01
13836;BME280;6988;52.614;13.500;2024-02-15T10:19:13;54629.34;;;-143.77;90.87
13836;BME280;6988;52.614;13.500;2024-02-15T10:24:06;54639.59;;;-143.77;90.69
13836;BME280;6988;52.614;13.500;2024-02-15T10:29:06;54602.66;;;-143.77;90.69
13836;BME280;6988;52.614;13.500;2024-02-15T10:34:05;54606.78;;;-143.77;90.74
13836;BME280;6988;52.614;13.500;2024-02-15T10:39:11;54584.19;;;-143.77;90.13
13836;BME280;6988;52.614;13.500;2024-02-15T10:44:08;54598.56;;;-143.77;89.69
13836;BME280;6988;52.614;13.500;2024-02-15T10:49:00;54606.78;;;-143.77;89.56
13836;BME280;6988;52.614;13.500;2024-02-15T10:54:02;54582.16;;;-143.77;89.25
13836;BME280;6988;52.614;13.500;2024-02-15T10:59:08;54561.63;;;-143.77;89.14
13836;BME280;6988;52.614;13.500;2024-02-15T11:04:08;54576.00;;;-143.77;88.60
13836;BME280;6988;52.614;13.500;2024-02-15T11:09:03;54561.63;;;-143.77;88.11
13836;BME280;6988;52.614;13.500;2024-02-15T11:14:28;54524.69;;;-143.77;87.21
13836;BME280;6988;52.614;13.500;2024-02-15T11:19:45;54514.44;;;-143.77;86.35
13836;BME280;6988;52.614;13.500;2024-02-15T11:24:46;54545.22;;;-143.77;86.04
13836;BME280;6988;52.614;13.500;2024-02-15T11:29:48;54532.91;;;-143.77;85.89
13836;BME280;6988;52.614;13.500;2024-02-15T11:34:43;54569.84;;;-143.77;85.90
13836;BME280;6988;52.614;13.500;2024-02-15T11:39:43;54547.25;;;-143.77;85.20
13836;BME280;6988;52.614;13.500;2024-02-15T11:44:37;54545.22;;;-143.77;85.52
13836;BME280;6988;52.614;13.500;2024-02-15T11:49:30;54545.22;;;-143.77;85.67
13836;BME280;6988;52.614;13.500;2024-02-15T11:54:22;54524.69;;;-143.77;85.22
13836;BME280;6988;52.614;13.500;2024-02-15T11:59:15;54537.00;;;-143.77;84.55
13836;BME280;6988;52.614;13.500;2024-02-15T12:04:19;54514.44;;;-143.77;84.40
13836;BME280;6988;52.614;13.500;2024-02-15T12:09:28;54528.78;;;-143.77;84.07
13836;BME280;6988;52.614;13.500;2024-02-15T12:14:39;54530.84;;;-143.77;83.98
13836;BME280;6988;52.614;13.500;2024-02-15T12:19:50;54537.00;;;-143.77;84.29
13836;BME280;6988;52.614;13.500;2024-02-15T12:24:45;54545.22;;;-143.77;84.56
13836;BME280;6988;52.614;13.500;2024-02-15T12:29:38;54565.72;;;-143.77;84.83
13836;BME280;6988;52.614;13.500;2024-02-15T12:34:31;54569.84;;;-143.77;85.04
13836;BME280;6988;52.614;13.500;2024-02-15T12:39:25;54534.94;;;-143.77;84.98
13836;BME280;6988;52.614;13.500;2024-02-15T12:44:18;54565.72;;;-143.77;84.88
13836;BME280;6988;52.614;13.500;2024-02-15T12:49:28;54571.88;;;-143.77;85.16
13836;BME280;6988;52.614;13.500;2024-02-15T12:54:23;54528.78;;;-143.77;84.56
13836;BME280;6988;52.614;13.500;2024-02-15T12:59:16;54520.59;;;-143.77;84.45
13836;BME280;6988;52.614;13.500;2024-02-15T13:04:10;54524.69;;;-143.77;84.07
13836;BME280;6988;52.614;13.500;2024-02-15T13:09:04;54555.47;;;-143.77;84.13
13836;BME280;6988;52.614;13.500;2024-02-15T13:13:56;54557.53;;;-143.77;84.36
13836;BME280;6988;52.614;13.500;2024-02-15T13:18:48;54532.91;;;-143.77;84.06
13836;BME280;6988;52.614;13.500;2024-02-15T13:23:41;54561.63;;;-143.77;84.04
13836;BME280;6988;52.614;13.500;2024-02-15T13:28:36;54545.22;;;-143.77;84.05
13836;BME280;6988;52.614;13.500;2024-02-15T13:33:28;54569.84;;;-143.77;83.54
13836;BME280;6988;52.614;13.500;2024-02-15T13:38:22;54524.69;;;-143.77;83.56
13836;BME280;6988;52.614;13.500;2024-02-15T13:43:15;54526.75;;;-143.77;83.92
13836;BME280;6988;52.614;13.500;2024-02-15T13:48:09;54526.75;;;-143.77;83.87
13836;BME280;6988;52.614;13.500;2024-02-15T13:53:04;54561.63;;;-143.77;83.86
13836;BME280;6988;52.614;13.500;2024-02-15T13:57:57;54532.91;;;-143.77;84.00
13836;BME280;6988;52.614;13.500;2024-02-15T14:02:51;54571.88;;;-143.77;84.09
13836;BME280;6988;52.614;13.500;2024-02-15T14:07:49;54547.25;;;-143.77;83.58
13836;BME280;6988;52.614;13.500;2024-02-15T14:12:47;54528.78;;;-143.77;82.71
13836;BME280;6988;52.614;13.500;2024-02-15T14:17:39;54541.09;;;-143.77;82.61
13836;BME280;6988;52.614;13.500;2024-02-15T14:22:31;54534.94;;;-143.77;82.95
13836;BME280;6988;52.614;13.500;2024-02-15T14:27:26;54543.16;;;-143.77;83.08
13836;BME280;6988;52.614;13.500;2024-02-15T14:32:18;54567.78;;;-143.77;83.53
13836;BME280;6988;52.614;13.500;2024-02-15T14:37:27;54578.03;;;-143.77;83.17
13836;BME280;6988;52.614;13.500;2024-02-15T14:42:19;54563.69;;;-143.77;83.39
13836;BME280;6988;52.614;13.500;2024-02-15T14:47:13;54563.69;;;-143.77;83.51
13836;BME280;6988;52.614;13.500;2024-02-15T14:52:06;54576.00;;;-143.77;83.79
13836;BME280;6988;52.614;13.500;2024-02-15T14:56:58;54614.97;;;-143.77;84.18
13836;BME280;6988;52.614;13.500;2024-02-15T15:01:50;54580.09;;;-143.77;84.37
13836;BME280;6988;52.614;13.500;2024-02-15T15:06:45;54590.34;;;-143.77;84.83
13836;BME280;6988;52.614;13.500;2024-02-15T15:11:55;54573.94;;;-143.77;86.14
13836;BME280;6988;52.614;13.500;2024-02-15T15:17:04;54561.63;;;-143.77;86.03
13836;BME280;6988;52.614;13.500;2024-02-15T15:22:01;54594.47;;;-143.77;85.95
13836;BME280;6988;52.614;13.500;2024-02-15T15:26:55;54629.34;;;-143.77;85.99
13836;BME280;6988;52.614;13.500;2024-02-15T15:31:47;54584.19;;;-143.77;85.70
13836;BME280;6988;52.614;13.500;2024-02-15T15:36:39;54541.09;;;-143.77;85.66
13836;BME280;6988;52.614;13.500;2024-02-15T15:41:35;54594.47;;;-143.77;85.58
13836;BME280;6988;52.614;13.500;2024-02-15T15:46:28;54614.97;;;-143.77;85.78
13836;BME280;6988;52.614;13.500;2024-02-15T15:51:20;54561.63;;;-143.77;85.85
13836;BME280;6988;52.614;13.500;2024-02-15T15:56:12;54586.25;;;-143.77;85.90
13836;BME280;6988;52.614;13.500;2024-02-15T16:01:10;54532.91;;;-143.77;85.80
13836;BME280;6988;52.614;13.500;2024-02-15T16:06:02;54547.25;;;-143.77;85.90
13836;BME280;6988;52.614;13.500;2024-02-15T16:10:54;54598.56;;;-143.77;86.79
13836;BME280;6988;52.614;13.500;2024-02-15T16:15:51;54571.88;;;-143.77;87.05
13836;BME280;6988;52.614;13.500;2024-02-15T16:20:45;54602.66;;;-143.77;87.32
13836;BME280;6988;52.614;13.500;2024-02-15T16:25:41;54602.66;;;-143.77;87.65
13836;BME280;6988;52.614;13.500;2024-02-15T16:30:34;54627.28;;;-143.77;88.06
13836;BME280;6988;52.614;13.500;2024-02-15T16:35:26;54627.28;;;-143.77;88.59
13836;BME280;6988;52.614;13.500;2024-02-15T16:40:21;54606.78;;;-143.77;89.06
13836;BME280;6988;52.614;13.500;2024-02-15T16:45:14;54623.19;;;-143.77;89.32
13836;BME280;6988;52.614;13.500;2024-02-15T16:50:09;54619.09;;;-143.77;89.63
13836;BME280;6988;52.614;13.500;2024-02-15T16:55:02;54631.41;;;-143.77;90.04
13836;BME280;6988;52.614;13.500;2024-02-15T16:59:57;54627.28;;;-143.77;90.08
13836;BME280;6988;52.614;13.500;2024-02-15T17:04:49;54637.56;;;-143.77;89.78
13836;BME280;6988;52.614;13.500;2024-02-15T17:09:41;54643.72;;;-143.77;90.15
13836;BME280;6988;52.614;13.500;2024-02-15T17:14:33;54621.13;;;-143.77;90.37
13836;BME280;6988;52.614;13.500;2024-02-15T17:19:30;54643.72;;;-143.77;89.89
13836;BME280;6988;52.614;13.500;2024-02-15T17:24:21;54621.13;;;-143.77;90.30
13836;BME280;6988;52.614;13.500;2024-02-15T17:29:14;54623.19;;;-143.77;90.75
13836;BME280;6988;52.614;13.500;2024-02-15T17:34:06;54660.13;;;-143.77;90.69
13836;BME280;6988;52.614;13.500;2024-02-15T17:39:03;54629.34;;;-143.77;91.23
13836;BME280;6988;52.614;13.500;2024-02-15T17:43:55;54643.72;;;-143.77;91.25
13836;BME280;6988;52.614;13.500;2024-02-15T17:48:50;54649.88;;;-143.77;91.47
13836;BME280;6988;52.614;13.500;2024-02-15T17:53:42;54625.25;;;-143.77;92.00
13836;BME280;6988;52.614;13.500;2024-02-15T17:58:36;54643.72;;;-143.77;91.93
13836;BME280;6988;52.614;13.500;2024-02-15T18:03:28;54664.22;;;-143.77;91.73
13836;BME280;6988;52.614;13.500;2024-02-15T18:08:20;54647.81;;;-143.77;91.61
13836;BME280;6988;52.614;13.500;2024-02-15T18:13:12;54664.22;;;-143.77;91.48
13836;BME280;6988;52.614;13.500;2024-02-15T18:18:06;54676.53;;;-143.77;91.86
13836;BME280;6988;52.614;13.500;2024-02-15T18:22:59;54631.41;;;-143.77;91.96
13836;BME280;6988;52.614;13.500;2024-02-15T18:27:51;54653.97;;;-143.77;91.84
13836;BME280;6988;52.614;13.500;2024-02-15T18:32:43;54651.91;;;-143.77;92.05
13836;BME280;6988;52.614;13.500;2024-02-15T18:37:36;54633.44;;;-143.77;92.10
13836;BME280;6988;52.614;13.500;2024-02-15T18:42:28;54656.03;;;-143.77;91.93
13836;BME280;6988;52.614;13.500;2024-02-15T18:47:21;54674.50;;;-143.77;92.10
13836;BME280;6988;52.614;13.500;2024-02-15T18:52:13;54668.34;;;-143.77;92.33
13836;BME280;6988;52.614;13.500;2024-02-15T18:57:06;54647.81;;;-143.77;91.38
13836;BME280;6988;52.614;13.500;2024-02-15T19:01:59;54668.34;;;-143.77;90.71
13836;BME280;6988;52.614;13.500;2024-02-15T19:06:51;54623.19;;;-143.77;90.70
13836;BME280;6988;52.614;13.500;2024-02-15T19:11:43;54705.28;;;-143.77;90.93
13836;BME280;6988;52.614;13.500;2024-02-15T19:16:36;54660.13;;;-143.77;91.41
13836;BME280;6988;52.614;13.500;2024-02-15T19:21:28;54643.72;;;-143.77;91.42
13836;BME280;6988;52.614;13.500;2024-02-15T19:26:20;54672.44;;;-143.77;92.27
13836;BME280;6988;52.614;13.500;2024-02-15T19:31:11;54672.44;;;-143.77;92.41
13836;BME280;6988;52.614;13.500;2024-02-15T19:36:06;54623.19;;;-143.77;92.47
13836;BME280;6988;52.614;13.500;2024-02-15T19:40:58;54656.03;;;-143.77;92.64
13836;BME280;6988;52.614;13.500;2024-02-15T19:45:50;54633.44;;;-143.77;92.52
13836;BME280;6988;52.614;13.500;2024-02-15T19:50:42;54635.50;;;-143.77;92.34
13836;BME280;6988;52.614;13.500;2024-02-15T19:55:36;54614.97;;;-143.77;92.03
13836;BME280;6988;52.614;13.500;2024-02-15T20:00:28;54649.88;;;-143.77;92.42
13836;BME280;6988;52.614;13.500;2024-02-15T20:05:21;54662.19;;;-143.77;92.15
13836;BME280;6988;52.614;13.500;2024-02-15T20:10:14;54629.34;;;-143.77;91.77
13836;BME280;6988;52.614;13.500;2024-02-15T20:15:08;54608.81;;;-143.77;91.38
13836;BME280;6988;52.614;13.500;2024-02-15T20:20:00;54633.44;;;-143.77;91.40
13836;BME280;6988;52.614;13.500;2024-02-15T20:24:53;54684.75;;;-143.77;91.17
13836;BME280;6988;52.614;13.500;2024-02-15T20:29:45;54645.75;;;-143.77;90.74
13836;BME280;6988;52.614;13.500;2024-02-15T20:34:38;54709.38;;;-143.77;90.96
13836;BME280;6988;52.614;13.500;2024-02-15T20:39:30;54647.81;;;-143.77;91.13
13836;BME280;6988;52.614;13.500;2024-02-15T20:44:23;54643.72;;;-143.77;91.05
13836;BME280;6988;52.614;13.500;2024-02-15T20:49:14;54660.13;;;-143.77;91.49
13836;BME280;6988;52.614;13.500;2024-02-15T20:54:07;54664.22;;;-143.77;91.39
13836;BME280;6988;52.614;13.500;2024-02-15T20:59:01;54617.03;;;-143.77;91.19
13836;BME280;6988;52.614;13.500;2024-02-15T21:03:54;54647.81;;;-143.77;91.16
13836;BME280;6988;52.614;13.500;2024-02-15T21:08:46;54614.97;;;-143.77;91.04
13836;BME280;6988;52.614;13.500;2024-02-15T21:13:41;54647.81;;;-143.77;90.91
13836;BME280;6988;52.614;13.500;2024-02-15T21:18:35;54660.13;;;-143.77;90.74
13836;BME280;6988;52.614;13.500;2024-02-15T21:23:27;54647.81;;;-143.77;90.88
13836;BME280;6988;52.614;13.500;2024-02-15T21:28:19;54660.13;;;-143.77;90.81
13836;BME280;6988;52.614;13.500;2024-02-15T21:33:12;54631.41;;;-143.77;90.92
13836;BME280;6988;52.614;13.500;2024-02-15T21:38:05;54672.44;;;-143.77;91.10
13836;BME280;6988;52.614;13.500;2024-02-15T21:42:56;54627.28;;;-143.77;90.86
13836;BME280;6988;52.614;13.500;2024-02-15T21:47:49;54629.34;;;-143.77;90.47
13836;BME280;6988;52.614;13.500;2024-02-15T21:52:42;54668.34;;;-143.77;90.22
13836;BME280;6988;52.614;13.500;2024-02-15T21:57:34;54633.44;;;-143.77;90.26
13836;BME280;6988;52.614;13.500;2024-02-15T22:02:25;54639.59;;;-143.77;90.23
13836;BME280;6988;52.614;13.500;2024-02-15T22:07:17;54627.28;;;-143.77;90.10
13836;BME280;6988;52.614;13.500;2024-02-15T22:12:14;54707.31;;;-143.77;90.06
13836;BME280;6988;52.614;13.500;2024-02-15T22:17:06;54627.28;;;-143.77;90.16
13836;BME280;6988;52.614;13.500;2024-02-15T22:21:58;54649.88;;;-143.77;90.32
13836;BME280;6988;52.614;13.500;2024-02-15T22:26:50;54619.09;;;-143.77;90.26
13836;BME280;6988;52.614;13.500;2024-02-15T22:31:43;54656.03;;;-143.77;89.76
13836;BME280;6988;52.614;13.500;2024-02-15T22:36:35;54635.50;;;-143.77;89.60
13836;BME280;6988;52.614;13.500;2024-02-15T22:41:27;54672.44;;;-143.77;89.43
13836;BME280;6988;52.614;13.500;2024-02-15T23:03:50;54721.69;;;-143.77;90.17
13836;BME280;6988;52.614;13.500;2024-02-15T23:08:42;54766.84;;;-143.77;90.52
13836;BME280;6988;52.614;13.500;2024-02-15T23:13:35;54707.31;;;-143.77;90.83
13836;BME280;6988;52.614;13.500;2024-02-15T23:18:29;54690.91;;;-143.77;90.71
13836;BME280;6988;52.614;13.500;2024-02-15T23:23:22;54715.53;;;-143.77;90.91
13836;BME280;6988;52.614;13.500;2024-02-15T23:28:14;54705.28;;;-143.77;90.49
13836;BME280;6988;52.614;13.500;2024-02-15T23:33:07;54713.47;;;-143.77;90.65
13836;BME280;6988;52.614;13.500;2024-02-15T23:38:00;54717.59;;;-143.77;90.60
13836;BME280;6988;52.614;13.500;2024-02-15T23:43:11;54719.63;;;-143.77;90.39
13836;BME280;6988;52.614;13.500;2024-02-15T23:48:04;54721.69;;;-143.77;90.57
13836;BME280;6988;52.614;13.500;2024-02-15T23:52:56;54723.75;;;-143.77;90.90
13836;BME280;6988;52.614;13.500;2024-02-15T23:57:48;54744.25;;;-143.77;90.97
